Purcellville, Virginia
Current Conditions -  °F | °C
As of 8:55 AM on Monday 24 Nov 2014 (Local Time) from KJYO Reporting Station
Clear Clear  
Wind Chill: 63°   Ceiling: Unl
Heat Index: 63°   Visibility: 10mi
Dew Point: 59°   Wind: 15mph
Humidity: 88%   Direction: 210°SSW
Pressure: 29.68"   Gusts: 25mph
Location:  39.14°N, 77.71°W
Report Text: KJYO 241355Z AUTO 21013G22KT 10SM CLR 17/15 A2968 RMK AO2 P0001
Loading
Personal Weather Stations






























Interactive Weather Map New forecast layout! Learn more

10-Day Weather Forecast

Advertisements
Track Severe Weather on mobile